createdAt,value
2023-02-08T00:01:28.410Z,16.60
2023-02-08T00:03:56.848Z,18.50
2023-02-08T00:06:25.390Z,17.10
2023-02-08T00:08:53.784Z,18.90
2023-02-08T00:11:22.179Z,17.60
2023-02-08T00:13:50.587Z,18.20
2023-02-08T00:16:19.219Z,15.50
2023-02-08T00:18:47.895Z,13.00
2023-02-08T00:21:18.798Z,12.90
2023-02-08T00:23:47.711Z,13.10
2023-02-08T00:26:16.841Z,12.90
2023-02-08T00:28:45.468Z,9.90
2023-02-08T00:31:14.029Z,11.00
2023-02-08T00:33:42.633Z,9.80
2023-02-08T00:36:12.057Z,9.70
2023-02-08T00:38:40.901Z,8.60
2023-02-08T00:41:10.023Z,9.90
2023-02-08T00:43:38.521Z,13.20
2023-02-08T00:46:08.154Z,11.00
2023-02-08T00:48:36.592Z,11.80
2023-02-08T00:51:10.341Z,11.30
2023-02-08T00:53:41.328Z,8.60
2023-02-08T00:56:12.092Z,10.50
2023-02-08T00:58:41.063Z,9.10
2023-02-08T01:01:10.199Z,12.00
2023-02-08T01:03:41.485Z,10.70
2023-02-08T01:06:14.681Z,10.40
2023-02-08T01:08:43.824Z,10.10
2023-02-08T01:11:17.628Z,9.20
2023-02-08T01:13:46.192Z,8.90
2023-02-08T01:16:24.563Z,9.80
2023-02-08T01:18:56.110Z,10.90
2023-02-08T01:21:28.658Z,11.90
2023-02-08T01:23:57.514Z,9.50
2023-02-08T01:26:27.187Z,10.40
2023-02-08T01:28:56.577Z,9.90
2023-02-08T01:31:33.926Z,9.90
2023-02-08T01:34:04.498Z,8.80
2023-02-08T01:36:33.953Z,8.30
2023-02-08T01:39:04.429Z,8.70
2023-02-08T01:41:37.636Z,9.80
2023-02-08T01:44:06.269Z,9.40
2023-02-08T01:46:41.205Z,10.00
2023-02-08T01:49:33.624Z,10.20
2023-02-08T01:52:12.173Z,9.60
2023-02-08T01:55:00.662Z,8.80
2023-02-08T01:57:29.845Z,9.10
2023-02-08T02:00:13.990Z,9.70
2023-02-08T02:02:45.741Z,8.90
2023-02-08T02:05:17.594Z,12.00
2023-02-08T02:07:46.848Z,10.90
2023-02-08T02:10:21.982Z,12.30
2023-02-08T02:12:51.054Z,12.20
2023-02-08T02:15:19.796Z,12.30
2023-02-08T02:17:48.554Z,12.70
2023-02-08T02:21:00.786Z,12.20
2023-02-08T02:23:41.568Z,11.80
2023-02-08T02:26:34.611Z,13.60
2023-02-08T02:29:42.174Z,13.30
2023-02-08T02:32:34.655Z,11.80
2023-02-08T02:35:12.949Z,10.60
2023-02-08T02:37:41.274Z,12.30
2023-02-08T02:40:28.061Z,11.90
2023-02-08T02:43:41.510Z,12.50
2023-02-08T02:46:40.408Z,12.20
2023-02-08T02:49:29.225Z,12.30
2023-02-08T02:52:11.626Z,12.90
2023-02-08T02:55:07.707Z,11.50
2023-02-08T02:57:37.277Z,11.60
2023-02-08T03:00:12.106Z,11.10
2023-02-08T03:02:40.633Z,12.60
2023-02-08T03:05:12.360Z,12.00
2023-02-08T03:07:56.197Z,11.70
2023-02-08T03:10:49.346Z,12.10
2023-02-08T03:13:44.343Z,11.80
2023-02-08T03:16:20.256Z,10.10
2023-02-08T03:19:10.564Z,11.50
2023-02-08T03:22:08.227Z,10.50
2023-02-08T03:25:01.447Z,10.70
2023-02-08T03:27:50.474Z,11.00
2023-02-08T03:30:45.269Z,10.70
2023-02-08T03:33:27.228Z,10.20
2023-02-08T03:36:19.510Z,12.20
2023-02-08T03:38:50.889Z,11.00
2023-02-08T03:41:27.683Z,11.00
2023-02-08T03:44:03.563Z,11.90
2023-02-08T03:46:39.599Z,12.10
2023-02-08T03:49:15.222Z,11.70
2023-02-08T03:51:45.457Z,12.00
2023-02-08T03:54:24.402Z,11.90
2023-02-08T03:57:12.951Z,10.50
2023-02-08T03:59:47.278Z,12.00
2023-02-08T04:02:21.298Z,11.00
2023-02-08T04:04:51.632Z,12.90
2023-02-08T04:07:20.449Z,12.50
2023-02-08T04:09:49.014Z,10.40
2023-02-08T04:12:17.871Z,11.50
2023-02-08T04:14:46.353Z,11.70
2023-02-08T04:17:14.894Z,12.30
2023-02-08T04:19:43.361Z,12.40
2023-02-08T04:22:11.917Z,11.60
2023-02-08T04:24:41.041Z,13.90
2023-02-08T04:27:09.461Z,12.40
2023-02-08T04:29:37.973Z,12.00
2023-02-08T04:32:11.579Z,12.00
2023-02-08T04:34:40.920Z,12.80
2023-02-08T04:37:09.618Z,12.10
2023-02-08T04:39:38.553Z,13.40
2023-02-08T04:42:07.116Z,14.00
2023-02-08T04:44:35.770Z,15.30
2023-02-08T04:47:04.350Z,14.20
2023-02-08T04:49:32.755Z,14.40
2023-02-08T04:52:01.267Z,14.70
2023-02-08T04:54:29.869Z,14.90
2023-02-08T04:56:58.410Z,14.40
2023-02-08T04:59:26.864Z,14.90
2023-02-08T05:01:55.305Z,14.80
2023-02-08T05:04:23.727Z,13.70
2023-02-08T05:06:52.048Z,15.30
2023-02-08T05:09:20.569Z,14.50
2023-02-08T05:11:49.107Z,14.30
2023-02-08T05:14:17.693Z,16.10
2023-02-08T05:16:46.084Z,15.10
2023-02-08T05:19:14.610Z,14.10
2023-02-08T05:21:43.070Z,15.40
2023-02-08T05:24:12.567Z,16.40
2023-02-08T05:26:41.702Z,15.20
2023-02-08T05:29:10.732Z,16.60
2023-02-08T05:31:42.859Z,15.00
2023-02-08T05:34:12.331Z,14.50
2023-02-08T05:36:41.270Z,15.40
2023-02-08T05:39:09.714Z,15.00
2023-02-08T05:41:38.507Z,15.40
2023-02-08T05:44:07.096Z,14.20
2023-02-08T05:46:47.881Z,16.20
2023-02-08T05:49:21.212Z,18.10
2023-02-08T05:51:53.486Z,16.40
2023-02-08T05:54:22.308Z,18.10
2023-02-08T05:56:59.790Z,15.50
2023-02-08T05:59:35.510Z,17.70
2023-02-08T06:02:06.784Z,16.60
2023-02-08T06:04:39.208Z,17.20
2023-02-08T06:07:16.307Z,16.10
2023-02-08T06:09:47.069Z,16.60
2023-02-08T06:12:16.905Z,17.10
2023-02-08T06:14:45.610Z,16.00
2023-02-08T06:17:14.275Z,16.10
2023-02-08T06:19:46.122Z,16.10
2023-02-08T06:22:17.079Z,17.70
2023-02-08T06:24:48.682Z,14.40
2023-02-08T06:27:19.720Z,15.60
2023-02-08T06:29:55.658Z,15.60
2023-02-08T06:32:27.206Z,16.90
2023-02-08T06:34:58.410Z,16.60
2023-02-08T06:37:29.836Z,16.00
2023-02-08T06:40:08.816Z,18.50
2023-02-08T06:42:39.092Z,18.80
2023-02-08T06:45:13.722Z,16.80
2023-02-08T06:47:45.093Z,18.40
2023-02-08T06:50:15.301Z,19.40
2023-02-08T06:52:43.974Z,16.80
2023-02-08T06:55:13.044Z,17.90
2023-02-08T06:57:43.792Z,18.50
2023-02-08T07:00:13.926Z,20.10
2023-02-08T07:03:13.220Z,19.80
2023-02-08T07:05:58.671Z,21.40
2023-02-08T07:08:34.101Z,21.60
2023-02-08T07:11:09.238Z,21.90
2023-02-08T07:13:38.308Z,23.20
2023-02-08T07:16:09.783Z,24.10
2023-02-08T07:18:38.542Z,20.70
2023-02-08T07:21:07.069Z,23.80
2023-02-08T07:23:35.471Z,22.60
2023-02-08T07:26:13.294Z,23.80
2023-02-08T07:28:42.283Z,26.80
2023-02-08T07:31:14.722Z,23.70
2023-02-08T07:33:45.157Z,23.30
2023-02-08T07:36:13.657Z,23.30
2023-02-08T07:38:42.252Z,24.30
2023-02-08T07:41:14.264Z,22.70
2023-02-08T07:43:43.551Z,23.60
2023-02-08T07:46:21.574Z,23.40
2023-02-08T07:48:50.085Z,22.40
2023-02-08T07:51:18.984Z,23.00
2023-02-08T07:53:47.442Z,24.70
2023-02-08T07:56:15.992Z,23.20
2023-02-08T07:58:44.887Z,26.50
2023-02-08T08:01:21.990Z,26.30
2023-02-08T08:03:52.676Z,24.20
2023-02-08T08:06:22.763Z,24.10
2023-02-08T08:08:51.878Z,24.20
2023-02-08T08:11:22.044Z,24.20
2023-02-08T08:13:51.115Z,23.00
2023-02-08T08:16:19.910Z,25.00
2023-02-08T08:18:48.920Z,24.30
2023-02-08T08:21:18.118Z,26.00
2023-02-08T08:23:47.570Z,23.80
2023-02-08T08:26:20.358Z,25.70
2023-02-08T08:28:49.476Z,24.60
2023-02-08T08:31:21.689Z,25.70
2023-02-08T08:33:50.438Z,29.00
2023-02-08T08:36:19.237Z,24.10
2023-02-08T08:38:47.715Z,25.70
2023-02-08T08:41:18.108Z,24.60
2023-02-08T08:43:46.862Z,23.20
2023-02-08T08:46:16.729Z,25.40
2023-02-08T08:48:45.755Z,23.40
2023-02-08T08:51:14.492Z,25.00
2023-02-08T08:53:42.825Z,24.90
2023-02-08T08:56:12.195Z,23.90
2023-02-08T08:58:43.589Z,23.30
2023-02-08T09:01:13.989Z,26.20
2023-02-08T09:03:42.564Z,23.90
2023-02-08T09:06:11.164Z,25.40
2023-02-08T09:08:39.820Z,24.30
2023-02-08T09:11:12.526Z,25.20
2023-02-08T09:13:41.708Z,25.40
2023-02-08T09:16:17.321Z,24.70
2023-02-08T09:18:46.324Z,24.40
2023-02-08T09:21:20.059Z,23.50
2023-02-08T09:23:48.770Z,25.80
2023-02-08T09:26:19.908Z,26.10
2023-02-08T09:28:49.105Z,24.70
2023-02-08T09:31:30.585Z,26.60
2023-02-08T09:34:01.091Z,24.60
2023-02-08T09:36:33.575Z,26.10
2023-02-08T09:39:12.256Z,23.40
2023-02-08T09:42:17.151Z,25.40
2023-02-08T09:44:59.106Z,24.20
2023-02-08T09:47:36.480Z,25.20
2023-02-08T09:53:13.584Z,23.90
2023-02-08T09:55:48.119Z,24.20
2023-02-08T09:58:28.857Z,21.80
2023-02-08T10:00:58.036Z,22.30
2023-02-08T10:03:46.634Z,22.30
2023-02-08T10:06:18.585Z,24.10
2023-02-08T10:08:53.922Z,22.70
2023-02-08T10:11:43.309Z,23.80
2023-02-08T10:14:37.900Z,23.10
2023-02-08T10:17:39.224Z,25.10
2023-02-08T10:20:28.763Z,24.90
2023-02-08T10:23:25.516Z,25.10
2023-02-08T10:26:31.870Z,23.70
2023-02-08T10:29:35.049Z,24.30
2023-02-08T10:33:00.106Z,24.30
2023-02-08T10:35:37.310Z,26.20
2023-02-08T10:42:18.628Z,25.00
2023-02-08T10:45:23.910Z,27.40
2023-02-08T10:48:00.774Z,25.70
2023-02-08T10:50:50.047Z,24.60
2023-02-08T10:53:26.722Z,21.90
2023-02-08T10:55:55.118Z,25.70
2023-02-08T10:58:28.762Z,24.00
2023-02-08T11:00:58.980Z,24.20
2023-02-08T11:03:30.118Z,37.00
2023-02-08T11:05:58.527Z,29.40
2023-02-08T11:08:28.927Z,28.10
2023-02-08T11:11:02.812Z,27.30
2023-02-08T11:13:46.310Z,25.70
2023-02-08T11:16:27.924Z,28.90
2023-02-08T11:19:02.658Z,26.10
2023-02-08T11:21:37.956Z,28.30
2023-02-08T11:24:15.323Z,28.60
2023-02-08T11:26:43.883Z,30.30
2023-02-08T11:29:24.874Z,30.80
2023-02-08T11:32:00.259Z,30.80
2023-02-08T11:40:03.948Z,26.60
2023-02-08T11:42:40.626Z,26.20
2023-02-08T11:45:24.347Z,27.20
2023-02-08T11:47:53.694Z,27.70
2023-02-08T11:50:30.169Z,28.30
2023-02-08T11:53:03.625Z,32.30
2023-02-08T11:55:35.200Z,29.30
2023-02-08T11:58:25.102Z,29.60
2023-02-08T12:01:21.607Z,28.40
2023-02-08T12:03:50.939Z,28.10
2023-02-08T12:07:10.958Z,28.30
2023-02-08T12:10:19.558Z,24.80
2023-02-08T12:13:00.572Z,27.00
2023-02-08T12:15:32.008Z,27.00
2023-02-08T12:18:06.605Z,27.00
2023-02-08T12:20:54.009Z,26.50
2023-02-08T12:23:37.407Z,28.20
2023-02-08T12:26:17.817Z,28.50
2023-02-08T12:29:11.013Z,26.20
2023-02-08T12:32:15.386Z,25.90
2023-02-08T12:35:10.550Z,26.10
2023-02-08T12:38:16.433Z,24.60
2023-02-08T12:41:03.039Z,27.80
2023-02-08T12:44:11.268Z,27.80
2023-02-08T12:46:51.793Z,26.50
2023-02-08T12:49:57.904Z,26.50
2023-02-08T12:52:55.377Z,24.50
2023-02-08T12:55:31.747Z,26.50
2023-02-08T12:58:45.835Z,26.20
2023-02-08T13:01:37.145Z,26.40
2023-02-08T13:04:22.439Z,28.60
2023-02-08T13:07:01.313Z,29.10
2023-02-08T13:09:35.002Z,25.00
2023-02-08T13:12:34.566Z,26.90
2023-02-08T13:15:32.715Z,25.60
2023-02-08T13:18:20.977Z,25.90
2023-02-08T13:21:01.942Z,27.00
2023-02-08T13:23:52.733Z,25.60
2023-02-08T13:26:33.967Z,25.80
2023-02-08T13:29:03.812Z,26.30
2023-02-08T13:31:43.058Z,26.90
2023-02-08T13:41:42.654Z,26.90
2023-02-08T13:44:31.844Z,27.50
2023-02-08T13:47:01.181Z,26.30
2023-02-08T13:50:02.083Z,28.20
2023-02-08T13:58:18.784Z,33.00
2023-02-08T14:01:01.043Z,31.40
2023-02-08T14:03:35.945Z,32.00
2023-02-08T14:06:08.261Z,34.50
2023-02-08T14:08:40.094Z,32.60
2023-02-08T14:11:45.928Z,32.60
2023-02-08T14:14:37.964Z,31.80
2023-02-08T14:17:29.595Z,35.80
2023-02-08T14:20:02.236Z,31.80
2023-02-08T14:34:35.009Z,30.70
2023-02-08T14:37:33.285Z,31.90
2023-02-08T14:40:16.990Z,31.00
2023-02-08T14:43:00.812Z,32.10
2023-02-08T14:45:44.551Z,28.70
2023-02-08T14:48:37.312Z,29.20
2023-02-08T14:51:09.063Z,29.40
2023-02-08T14:54:01.645Z,28.00
2023-02-08T14:56:37.407Z,28.70
2023-02-08T14:59:18.382Z,29.80
2023-02-08T15:01:53.656Z,30.30
2023-02-08T15:07:43.382Z,34.10
2023-02-08T15:10:15.183Z,28.80
2023-02-08T15:12:49.392Z,29.60
2023-02-08T15:15:43.930Z,31.00
2023-02-08T15:18:22.573Z,32.20
2023-02-08T15:21:02.982Z,27.80
2023-02-08T15:23:31.900Z,30.80
2023-02-08T15:26:19.170Z,29.90
2023-02-08T15:28:47.725Z,30.80
2023-02-08T15:31:21.802Z,31.40
2023-02-08T15:33:54.373Z,30.40
2023-02-08T15:36:32.795Z,29.50
2023-02-08T15:39:18.021Z,28.90
2023-02-08T15:41:48.955Z,31.30
2023-02-08T15:44:30.126Z,33.80
2023-02-08T15:47:16.532Z,32.20
2023-02-08T15:49:50.681Z,33.30
2023-02-08T15:52:24.874Z,30.60
2023-02-08T15:54:53.313Z,32.20
2023-02-08T15:57:44.931Z,32.80
2023-02-08T16:00:20.306Z,35.30
2023-02-08T16:05:30.991Z,34.80
2023-02-08T16:08:00.814Z,36.20
2023-02-08T16:10:42.739Z,35.60
2023-02-08T16:13:31.928Z,36.30
2023-02-08T16:16:21.834Z,38.20
2023-02-08T16:19:23.865Z,34.10
2023-02-08T16:21:56.226Z,32.10
2023-02-08T16:24:28.116Z,35.30
2023-02-08T16:27:18.712Z,34.60
2023-02-08T16:29:47.880Z,34.60
2023-02-08T16:32:31.760Z,35.40
2023-02-08T16:35:01.462Z,32.80
2023-02-08T16:37:35.137Z,33.80
2023-02-08T16:40:37.609Z,33.60
2023-02-08T16:43:29.370Z,35.40
2023-02-08T16:46:24.492Z,35.10
2023-02-08T16:48:57.208Z,38.10
2023-02-08T16:51:35.273Z,37.40
2023-02-08T16:54:07.717Z,37.50
2023-02-08T16:56:37.711Z,49.80
2023-02-08T16:59:06.268Z,58.30
2023-02-08T17:01:35.890Z,50.80
2023-02-08T17:04:06.578Z,54.00
2023-02-08T17:06:37.522Z,49.70
2023-02-08T17:09:09.096Z,47.90
2023-02-08T17:11:37.830Z,45.80
2023-02-08T17:14:07.962Z,42.10
2023-02-08T17:16:39.828Z,40.30
2023-02-08T17:19:18.669Z,39.30
2023-02-08T17:21:47.067Z,36.40
2023-02-08T17:24:15.426Z,33.40
2023-02-08T17:26:44.661Z,35.30
2023-02-08T17:29:13.406Z,35.90
2023-02-08T17:31:41.870Z,35.00
2023-02-08T17:34:10.299Z,37.40
2023-02-08T17:36:39.735Z,37.30
2023-02-08T17:39:10.501Z,38.80
2023-02-08T17:41:39.932Z,36.60
2023-02-08T17:44:08.423Z,38.80
2023-02-08T17:46:36.934Z,41.70
2023-02-08T17:49:05.412Z,41.50
2023-02-08T17:51:34.391Z,39.30
2023-02-08T17:54:05.436Z,39.40
2023-02-08T17:56:36.736Z,41.10
2023-02-08T17:59:05.599Z,40.30
2023-02-08T18:01:35.115Z,41.70
2023-02-08T18:04:03.856Z,44.30
2023-02-08T18:06:32.303Z,47.20
2023-02-08T18:09:00.700Z,53.30
2023-02-08T18:11:29.038Z,49.40
2023-02-08T18:13:57.401Z,54.20
2023-02-08T18:16:27.932Z,49.80
2023-02-08T18:19:01.232Z,49.40
2023-02-08T18:21:33.238Z,49.30
2023-02-08T18:24:06.077Z,58.80
2023-02-08T18:26:35.251Z,68.90
2023-02-08T18:29:04.534Z,70.20
2023-02-08T18:31:33.138Z,71.80
2023-02-08T18:34:01.828Z,67.50
2023-02-08T18:36:30.744Z,62.30
2023-02-08T18:38:59.547Z,61.60
2023-02-08T18:41:30.409Z,54.30
2023-02-08T18:43:59.358Z,48.30
2023-02-08T18:46:29.198Z,44.90
2023-02-08T18:48:58.005Z,44.60
2023-02-08T18:51:27.132Z,50.60
2023-02-08T18:53:55.988Z,47.70
2023-02-08T18:56:27.326Z,45.10
2023-02-08T18:59:00.666Z,46.80
2023-02-08T19:01:29.587Z,50.50
2023-02-08T19:03:59.091Z,43.80
2023-02-08T19:06:31.411Z,43.30
2023-02-08T19:09:03.592Z,43.00
2023-02-08T19:11:41.622Z,37.30
2023-02-08T19:14:13.230Z,34.70
2023-02-08T19:16:43.055Z,37.20
2023-02-08T19:19:11.438Z,32.90
2023-02-08T19:21:40.480Z,35.30
2023-02-08T19:24:15.039Z,33.70
2023-02-08T19:26:43.844Z,39.20
2023-02-08T19:29:15.850Z,36.40
2023-02-08T19:31:45.607Z,37.40
2023-02-08T19:34:14.129Z,36.50
2023-02-08T19:37:00.788Z,39.00
2023-02-08T19:39:29.178Z,40.30
2023-02-08T19:41:58.988Z,43.60
2023-02-08T19:44:30.255Z,45.20
2023-02-08T19:46:59.407Z,43.50
2023-02-08T19:49:28.524Z,44.90
2023-02-08T19:51:57.459Z,47.30
2023-02-08T19:54:26.729Z,42.40
2023-02-08T19:56:55.890Z,42.60
2023-02-08T19:59:29.371Z,48.80
2023-02-08T20:01:58.161Z,48.20
2023-02-08T20:04:26.581Z,51.50
2023-02-08T20:06:54.971Z,49.40
2023-02-08T20:09:23.419Z,50.90
2023-02-08T20:11:59.737Z,50.40
2023-02-08T20:14:32.753Z,54.80
2023-02-08T20:17:02.559Z,55.10
2023-02-08T20:19:31.097Z,55.90
2023-02-08T20:21:59.488Z,52.30
2023-02-08T20:24:28.506Z,53.00
2023-02-08T20:26:57.136Z,57.50
2023-02-08T20:29:27.844Z,57.40
2023-02-08T20:31:57.389Z,55.50
2023-02-08T20:34:26.278Z,52.90
2023-02-08T20:37:06.832Z,52.50
2023-02-08T20:39:37.298Z,56.80
2023-02-08T20:42:06.192Z,61.60
2023-02-08T20:44:34.804Z,55.40
2023-02-08T20:47:03.287Z,57.90
2023-02-08T20:49:32.643Z,59.30
2023-02-08T20:52:01.476Z,60.90
2023-02-08T20:54:30.200Z,61.80
2023-02-08T20:56:58.708Z,64.90
2023-02-08T20:59:27.237Z,66.30
2023-02-08T21:01:56.032Z,63.10
2023-02-08T21:04:24.478Z,59.90
2023-02-08T21:06:53.096Z,61.50
2023-02-08T21:09:21.828Z,57.40
2023-02-08T21:11:51.999Z,54.10
2023-02-08T21:14:23.394Z,57.70
2023-02-08T21:16:58.916Z,63.50
2023-02-08T21:22:01.145Z,55.30
2023-02-08T21:24:31.077Z,59.00
2023-02-08T21:26:59.993Z,54.40
2023-02-08T21:29:29.363Z,58.80
2023-02-08T21:31:58.952Z,52.40
2023-02-08T21:34:27.679Z,53.80
2023-02-08T21:36:56.193Z,53.60
2023-02-08T21:39:24.598Z,55.90
2023-02-08T21:41:55.434Z,52.20
2023-02-08T21:44:24.026Z,56.10
2023-02-08T21:46:52.432Z,52.80
2023-02-08T21:49:39.670Z,49.00
2023-02-08T21:52:29.440Z,52.10
2023-02-08T21:54:57.917Z,55.30
2023-02-08T21:57:33.118Z,53.40
2023-02-08T22:00:05.949Z,54.00
2023-02-08T22:02:34.822Z,56.20
2023-02-08T22:05:23.099Z,54.30
2023-02-08T22:08:00.556Z,54.70
2023-02-08T22:10:32.521Z,56.40
2023-02-08T22:13:01.194Z,60.60
2023-02-08T22:15:31.000Z,57.10
2023-02-08T22:18:04.311Z,60.30
2023-02-08T22:20:36.181Z,66.40
2023-02-08T22:23:06.007Z,66.40
2023-02-08T22:25:34.413Z,63.00
2023-02-08T22:28:03.112Z,66.90
2023-02-08T22:30:31.619Z,62.30
2023-02-08T22:32:59.995Z,56.50
2023-02-08T22:35:28.632Z,59.90
2023-02-08T22:37:57.221Z,57.70
2023-02-08T22:40:25.657Z,60.10
2023-02-08T22:42:54.276Z,58.70
2023-02-08T22:45:22.808Z,59.70
2023-02-08T22:47:51.176Z,65.30
2023-02-08T22:50:19.589Z,64.30
2023-02-08T22:52:51.226Z,63.40
2023-02-08T22:55:19.734Z,67.10
2023-02-08T22:57:48.523Z,63.40
2023-02-08T23:00:17.462Z,63.30
2023-02-08T23:02:46.100Z,67.20
2023-02-08T23:05:14.811Z,64.70
2023-02-08T23:07:43.348Z,61.90
2023-02-08T23:10:12.065Z,67.40
2023-02-08T23:12:40.515Z,68.90
2023-02-08T23:15:11.067Z,69.20
2023-02-08T23:17:39.465Z,67.90
2023-02-08T23:20:08.674Z,61.20
2023-02-08T23:22:37.878Z,61.10
2023-02-08T23:25:07.077Z,62.80
2023-02-08T23:27:35.999Z,66.20
2023-02-08T23:30:07.910Z,65.70
2023-02-08T23:32:38.369Z,65.00
2023-02-08T23:35:09.948Z,67.30
2023-02-08T23:37:38.872Z,71.40
2023-02-08T23:40:08.152Z,69.10
2023-02-08T23:42:36.866Z,86.60
2023-02-08T23:45:06.044Z,77.20
2023-02-08T23:47:34.593Z,67.90
2023-02-08T23:50:03.759Z,64.40
2023-02-08T23:52:34.724Z,60.60
2023-02-08T23:55:04.763Z,61.90
2023-02-08T23:57:35.914Z,58.10
